createdAt,value
2018-12-17T00:02:26.711Z,28.93
2018-12-17T00:05:32.229Z,29.60
2018-12-17T00:08:36.808Z,33.57
2018-12-17T00:11:41.496Z,30.20
2018-12-17T00:14:46.445Z,28.67
2018-12-17T00:17:50.659Z,31.00
2018-12-17T00:20:55.050Z,28.23
2018-12-17T00:23:59.348Z,29.13
2018-12-17T00:27:03.481Z,27.53
2018-12-17T00:30:09.204Z,25.50
2018-12-17T00:33:13.560Z,26.70
2018-12-17T00:36:17.846Z,26.67
2018-12-17T00:39:22.022Z,26.90
2018-12-17T00:42:26.168Z,28.90
2018-12-17T00:45:30.465Z,28.40
2018-12-17T00:48:35.193Z,26.00
2018-12-17T00:51:39.678Z,27.87
2018-12-17T00:54:43.918Z,26.27
2018-12-17T00:57:48.143Z,29.80
2018-12-17T01:00:52.622Z,27.00
2018-12-17T01:03:56.904Z,27.40
2018-12-17T01:07:01.398Z,25.20
2018-12-17T01:10:07.921Z,27.03
2018-12-17T01:13:12.502Z,25.13
2018-12-17T01:16:16.737Z,25.10
2018-12-17T01:19:20.882Z,26.13
2018-12-17T01:22:25.133Z,26.97
2018-12-17T01:25:29.343Z,22.97
2018-12-17T01:28:33.969Z,25.57
2018-12-17T01:31:37.879Z,23.93
2018-12-17T01:34:41.706Z,24.20
2018-12-17T01:37:45.588Z,24.30
2018-12-17T01:40:50.086Z,25.90
2018-12-17T01:43:54.419Z,24.27
2018-12-17T01:46:58.865Z,24.30
2018-12-17T01:50:03.809Z,25.33
2018-12-17T01:53:08.164Z,25.83
2018-12-17T01:56:12.519Z,22.93
2018-12-17T01:59:19.822Z,24.53
2018-12-17T02:02:24.208Z,23.63
2018-12-17T02:05:28.374Z,23.30
2018-12-17T02:08:33.004Z,24.00
2018-12-17T02:11:37.500Z,24.37
2018-12-17T02:14:42.087Z,22.33
2018-12-17T02:17:46.600Z,24.20
2018-12-17T02:20:51.239Z,23.70
2018-12-17T02:23:55.571Z,23.73
2018-12-17T02:26:59.945Z,22.50
2018-12-17T02:30:04.445Z,25.70
2018-12-17T02:33:08.842Z,23.20
2018-12-17T02:36:12.992Z,26.00
2018-12-17T02:39:17.320Z,23.23
2018-12-17T02:42:21.555Z,23.07
2018-12-17T02:45:26.855Z,22.90
2018-12-17T02:48:31.123Z,22.07
2018-12-17T02:51:37.815Z,21.70
2018-12-17T02:54:42.608Z,23.47
2018-12-17T02:57:46.875Z,25.40
2018-12-17T03:00:51.308Z,22.80
2018-12-17T03:03:55.612Z,23.40
2018-12-17T03:06:59.974Z,21.57
2018-12-17T03:10:04.618Z,22.00
2018-12-17T03:13:09.009Z,20.70
2018-12-17T03:16:13.427Z,21.73
2018-12-17T03:19:17.898Z,22.27
2018-12-17T03:22:22.177Z,20.60
2018-12-17T03:25:26.388Z,22.70
2018-12-17T03:28:30.574Z,20.57
2018-12-17T03:31:34.936Z,22.10
2018-12-17T03:34:39.239Z,20.87
2018-12-17T03:37:43.766Z,22.90
2018-12-17T03:40:48.211Z,22.33
2018-12-17T03:43:52.823Z,21.60
2018-12-17T03:46:57.047Z,20.90
2018-12-17T03:50:01.549Z,21.97
2018-12-17T03:53:05.704Z,22.10
2018-12-17T03:56:10.154Z,21.30
2018-12-17T03:59:14.512Z,20.27
2018-12-17T04:02:18.862Z,22.87
2018-12-17T04:05:23.348Z,19.93
2018-12-17T04:08:27.679Z,20.47
2018-12-17T04:11:31.975Z,20.70
2018-12-17T04:14:36.019Z,20.40
2018-12-17T04:17:40.504Z,20.50
2018-12-17T04:20:44.588Z,21.20
2018-12-17T04:23:48.917Z,23.97
2018-12-17T04:26:53.093Z,22.33
2018-12-17T04:29:57.246Z,22.40
2018-12-17T04:33:01.690Z,18.70
2018-12-17T04:36:05.981Z,22.97
2018-12-17T04:39:10.242Z,20.83
2018-12-17T04:42:14.408Z,20.03
2018-12-17T04:45:18.645Z,18.93
2018-12-17T04:48:23.052Z,20.27
2018-12-17T04:51:27.571Z,20.43
2018-12-17T04:54:31.883Z,20.07
2018-12-17T04:57:36.753Z,19.60
2018-12-17T05:00:41.062Z,19.00
2018-12-17T05:03:45.982Z,20.10
2018-12-17T05:06:50.264Z,20.17
2018-12-17T05:09:54.585Z,18.33
2018-12-17T05:12:59.012Z,21.77
2018-12-17T05:16:03.612Z,22.20
2018-12-17T05:19:08.045Z,20.20
2018-12-17T05:22:12.537Z,20.50
2018-12-17T05:25:16.773Z,19.60
2018-12-17T05:28:21.329Z,19.30
2018-12-17T05:31:25.786Z,19.97
2018-12-17T05:34:30.172Z,22.03
2018-12-17T05:37:34.623Z,20.07
2018-12-17T05:40:38.975Z,21.00
2018-12-17T05:43:43.112Z,20.30
2018-12-17T05:46:47.507Z,20.87
2018-12-17T05:49:51.688Z,21.70
2018-12-17T05:52:56.208Z,23.90
2018-12-17T05:56:00.638Z,21.20
2018-12-17T05:59:05.028Z,24.90
2018-12-17T06:02:09.540Z,25.33
2018-12-17T06:05:13.729Z,22.67
2018-12-17T06:08:18.065Z,23.13
2018-12-17T06:11:22.372Z,22.47
2018-12-17T06:14:26.416Z,22.80
2018-12-17T06:17:30.712Z,22.20
2018-12-17T06:20:34.900Z,20.23
2018-12-17T06:23:39.332Z,22.30
2018-12-17T06:26:43.561Z,22.20
2018-12-17T06:29:47.828Z,20.70
2018-12-17T06:32:53.169Z,19.60
2018-12-17T06:35:57.508Z,22.70
2018-12-17T06:39:01.816Z,22.00
2018-12-17T06:42:06.409Z,23.20
2018-12-17T06:45:10.838Z,21.87
2018-12-17T06:48:17.303Z,23.27
2018-12-17T06:51:23.236Z,19.10
2018-12-17T06:54:28.026Z,19.37
2018-12-17T06:57:32.556Z,18.97
2018-12-17T07:00:36.723Z,18.70
2018-12-17T07:03:41.577Z,20.17
2018-12-17T07:06:45.815Z,18.70
2018-12-17T07:09:50.147Z,19.27
2018-12-17T07:12:54.226Z,17.17
2018-12-17T07:15:58.691Z,18.13
2018-12-17T07:19:03.069Z,17.20
2018-12-17T07:22:07.380Z,18.10
2018-12-17T07:25:11.712Z,16.97
2018-12-17T07:28:16.125Z,16.87
2018-12-17T07:31:20.390Z,18.67
2018-12-17T07:34:25.092Z,16.83
2018-12-17T07:37:29.619Z,17.43
2018-12-17T07:40:33.919Z,18.37
2018-12-17T07:43:38.860Z,16.90
2018-12-17T07:46:43.110Z,17.63
2018-12-17T07:49:47.526Z,17.50
2018-12-17T07:52:52.197Z,18.23
2018-12-17T07:55:56.693Z,20.50
2018-12-17T07:59:01.229Z,30.60
2018-12-17T08:02:05.910Z,26.00
2018-12-17T08:05:10.164Z,30.90
2018-12-17T08:08:14.513Z,31.40
2018-12-17T08:11:18.830Z,29.83
2018-12-17T08:14:23.058Z,27.63
2018-12-17T08:17:27.535Z,29.83
2018-12-17T08:20:31.753Z,28.73
2018-12-17T08:23:36.173Z,29.97
2018-12-17T08:26:42.331Z,30.43
2018-12-17T08:29:46.756Z,30.50
2018-12-17T08:32:51.072Z,31.20
2018-12-17T08:35:55.359Z,29.10
2018-12-17T08:38:59.644Z,30.53
2018-12-17T08:42:03.828Z,31.37
2018-12-17T08:45:08.436Z,30.80
2018-12-17T08:48:12.760Z,31.30
2018-12-17T08:51:16.835Z,29.90
2018-12-17T08:54:21.096Z,27.80
2018-12-17T08:57:25.540Z,30.13
2018-12-17T09:00:29.848Z,32.33
2018-12-17T09:03:34.236Z,31.10
2018-12-17T09:06:38.468Z,33.53
2018-12-17T09:09:42.880Z,33.40
2018-12-17T09:12:47.334Z,35.90
2018-12-17T09:15:51.743Z,31.07
2018-12-17T09:18:56.133Z,30.70
2018-12-17T09:22:00.479Z,33.40
2018-12-17T09:25:05.500Z,30.30
2018-12-17T09:28:09.817Z,35.37
2018-12-17T09:31:14.035Z,36.00
2018-12-17T09:34:18.190Z,34.73
2018-12-17T09:37:22.526Z,34.33
2018-12-17T09:40:26.947Z,32.07
2018-12-17T09:43:31.262Z,34.57
2018-12-17T09:46:35.829Z,30.77
2018-12-17T09:49:40.086Z,30.33
2018-12-17T09:52:44.504Z,33.87
2018-12-17T09:55:48.858Z,32.00
2018-12-17T09:58:53.187Z,29.37
2018-12-17T10:01:57.458Z,29.53
2018-12-17T10:05:01.857Z,28.83
2018-12-17T10:08:06.258Z,29.27
2018-12-17T10:11:10.773Z,29.73
2018-12-17T10:14:14.952Z,28.80
2018-12-17T10:17:19.508Z,27.57
2018-12-17T10:20:23.617Z,28.70
2018-12-17T10:23:27.832Z,27.50
2018-12-17T10:26:32.075Z,25.57
2018-12-17T10:29:36.384Z,28.77
2018-12-17T10:32:40.726Z,25.63
2018-12-17T10:35:44.920Z,24.83
2018-12-17T10:38:49.382Z,26.30
2018-12-17T10:41:54.647Z,25.80
2018-12-17T10:44:58.975Z,25.43
2018-12-17T10:48:03.323Z,25.70
2018-12-17T10:51:07.713Z,27.63
2018-12-17T10:54:12.149Z,24.40
2018-12-17T10:57:16.551Z,26.57
2018-12-17T11:00:26.093Z,24.13
2018-12-17T11:03:39.176Z,23.73
2018-12-17T11:06:43.569Z,24.73
2018-12-17T11:09:47.894Z,25.13
2018-12-17T11:12:52.252Z,27.20
2018-12-17T11:15:57.851Z,23.93
2018-12-17T11:19:03.008Z,24.90
2018-12-17T11:22:07.400Z,25.10
2018-12-17T11:25:11.809Z,24.60
2018-12-17T11:28:16.101Z,27.30
2018-12-17T11:31:20.610Z,22.40
2018-12-17T11:34:24.906Z,27.80
2018-12-17T11:37:29.500Z,27.83
2018-12-17T11:40:33.975Z,26.40
2018-12-17T11:43:43.748Z,26.17
2018-12-17T11:46:44.837Z,25.77
2018-12-17T11:49:49.165Z,26.93
2018-12-17T11:52:53.347Z,17.87
2018-12-17T11:55:57.674Z,22.60
2018-12-17T11:59:02.130Z,14.37
2018-12-17T12:02:06.392Z,11.03
2018-12-17T12:05:10.784Z,11.30
2018-12-17T12:08:14.989Z,12.17
2018-12-17T12:11:19.622Z,11.70
2018-12-17T12:14:23.814Z,10.40
2018-12-17T12:17:28.288Z,11.67
2018-12-17T12:20:32.520Z,11.50
2018-12-17T12:23:37.136Z,11.07
2018-12-17T12:26:41.429Z,21.67
2018-12-17T12:29:45.846Z,25.77
2018-12-17T12:32:50.304Z,27.97
2018-12-17T12:35:55.332Z,25.90
2018-12-17T12:38:59.619Z,25.03
2018-12-17T12:42:04.484Z,24.97
2018-12-17T12:45:08.811Z,25.47
2018-12-17T12:48:13.173Z,26.20
2018-12-17T12:51:17.531Z,25.67
2018-12-17T12:54:22.276Z,23.40
2018-12-17T12:57:26.656Z,24.20
2018-12-17T13:00:31.010Z,24.20
2018-12-17T13:03:35.455Z,23.07
2018-12-17T13:06:40.009Z,23.57
2018-12-17T13:09:45.428Z,23.93
2018-12-17T13:12:49.683Z,24.00
2018-12-17T13:15:53.955Z,22.10
2018-12-17T13:18:58.438Z,23.50
2018-12-17T13:22:02.693Z,21.50
2018-12-17T13:25:10.024Z,23.20
2018-12-17T13:28:14.283Z,22.17
2018-12-17T13:31:18.516Z,20.40
2018-12-17T13:34:22.780Z,24.60
2018-12-17T13:37:27.112Z,21.97
2018-12-17T13:40:31.524Z,23.97
2018-12-17T13:43:35.714Z,22.93
2018-12-17T13:46:40.357Z,22.30
2018-12-17T13:49:44.895Z,22.63
2018-12-17T13:52:49.262Z,20.87
2018-12-17T13:55:53.594Z,21.03
2018-12-17T13:58:57.921Z,22.93
2018-12-17T14:02:02.179Z,21.23
2018-12-17T14:05:06.581Z,24.10
2018-12-17T14:08:10.813Z,21.73
2018-12-17T14:11:15.713Z,22.13
2018-12-17T14:14:19.984Z,22.30
2018-12-17T14:17:29.280Z,21.53
2018-12-17T14:20:38.780Z,23.83
2018-12-17T14:23:43.075Z,27.83
2018-12-17T14:26:47.475Z,23.80
2018-12-17T14:29:51.638Z,24.57
2018-12-17T14:32:56.987Z,23.83
2018-12-17T14:36:06.418Z,24.10
2018-12-17T14:39:10.941Z,26.20
2018-12-17T14:42:15.406Z,25.77
2018-12-17T14:45:19.528Z,25.80
2018-12-17T14:48:23.684Z,26.30
2018-12-17T14:51:28.068Z,25.20
2018-12-17T14:54:32.348Z,27.10
2018-12-17T14:57:36.917Z,32.83
2018-12-17T15:00:41.197Z,29.73
2018-12-17T15:03:45.709Z,30.10
2018-12-17T15:06:50.144Z,31.20
2018-12-17T15:09:54.743Z,30.73
2018-12-17T15:12:58.939Z,29.87
2018-12-17T15:16:03.423Z,27.50
2018-12-17T15:19:07.884Z,29.20
2018-12-17T15:22:12.163Z,29.53
2018-12-17T15:25:16.563Z,27.60
2018-12-17T15:28:20.996Z,28.30
2018-12-17T15:31:25.124Z,28.90
2018-12-17T15:34:29.375Z,33.33
2018-12-17T15:37:33.669Z,29.60
2018-12-17T15:40:38.012Z,31.00
2018-12-17T15:43:42.336Z,28.07
2018-12-17T15:46:46.788Z,28.73
2018-12-17T15:49:51.130Z,27.80
2018-12-17T15:52:55.401Z,26.83
2018-12-17T15:55:59.602Z,30.67
2018-12-17T15:59:04.093Z,29.00
2018-12-17T16:02:08.141Z,29.07
2018-12-17T16:05:12.615Z,27.00
2018-12-17T16:08:17.336Z,29.63
2018-12-17T16:11:21.860Z,30.73
2018-12-17T16:14:26.135Z,30.90
2018-12-17T16:17:30.436Z,30.57
2018-12-17T16:20:34.745Z,28.97
2018-12-17T16:23:39.105Z,33.70
2018-12-17T16:26:42.977Z,33.17
2018-12-17T16:29:47.240Z,34.30
2018-12-17T16:32:51.673Z,33.13
2018-12-17T16:35:55.693Z,33.13
2018-12-17T16:39:00.079Z,30.67
2018-12-17T16:42:04.362Z,32.23
2018-12-17T16:45:09.860Z,30.03
2018-12-17T16:48:14.145Z,32.10
2018-12-17T16:51:18.539Z,33.80
2018-12-17T16:54:23.016Z,33.70
2018-12-17T16:57:27.350Z,34.80
2018-12-17T17:00:31.569Z,35.03
2018-12-17T17:03:35.950Z,35.20
2018-12-17T17:06:40.388Z,34.93
2018-12-17T17:09:44.585Z,31.83
2018-12-17T17:12:49.677Z,34.20
2018-12-17T17:15:54.079Z,33.00
2018-12-17T17:18:58.604Z,33.40
2018-12-17T17:22:02.960Z,33.07
2018-12-17T17:25:07.716Z,31.47
2018-12-17T17:28:11.985Z,34.87
2018-12-17T17:31:16.756Z,35.57
2018-12-17T17:34:21.151Z,33.17
2018-12-17T17:37:25.416Z,36.53
2018-12-17T17:40:29.867Z,33.70
2018-12-17T17:43:34.367Z,35.73
2018-12-17T17:46:38.825Z,39.47
2018-12-17T17:49:43.284Z,38.70
2018-12-17T17:52:47.664Z,34.43
2018-12-17T17:55:52.180Z,31.20
2018-12-17T17:58:56.730Z,31.77
2018-12-17T18:02:00.942Z,32.23
2018-12-17T18:05:05.891Z,33.03
2018-12-17T18:08:10.386Z,32.87
2018-12-17T18:11:14.922Z,32.90
2018-12-17T18:14:19.433Z,31.80
2018-12-17T18:17:23.947Z,33.27
2018-12-17T18:20:28.137Z,30.07
2018-12-17T18:23:32.664Z,29.60
2018-12-17T18:26:37.185Z,29.37
2018-12-17T18:29:41.575Z,27.90
2018-12-17T18:32:45.958Z,30.43
2018-12-17T18:35:50.390Z,26.10
2018-12-17T18:38:54.791Z,29.90
2018-12-17T18:41:59.890Z,29.45
2018-12-17T18:45:04.451Z,26.97
2018-12-17T18:48:08.958Z,28.40
2018-12-17T18:51:14.079Z,29.57
2018-12-17T18:54:18.520Z,26.07
2018-12-17T18:57:22.924Z,29.70
2018-12-17T19:00:27.071Z,28.63
2018-12-17T19:03:32.547Z,29.90
2018-12-17T19:06:37.022Z,27.47
2018-12-17T19:09:42.951Z,27.50
2018-12-17T19:12:47.343Z,26.60
2018-12-17T19:15:51.682Z,26.60
2018-12-17T19:18:56.246Z,30.30
2018-12-17T19:22:00.507Z,27.37
2018-12-17T19:25:05.476Z,27.93
2018-12-17T19:28:09.993Z,25.40
2018-12-17T19:31:14.880Z,27.47
2018-12-17T19:34:19.380Z,25.73
2018-12-17T19:37:23.978Z,25.70
2018-12-17T19:40:28.331Z,27.60
2018-12-17T19:43:32.958Z,25.73
2018-12-17T19:46:37.083Z,24.90
2018-12-17T19:49:41.872Z,24.90
2018-12-17T19:52:46.171Z,26.50
2018-12-17T19:55:50.690Z,25.97
2018-12-17T19:58:55.165Z,25.77
2018-12-17T20:01:59.731Z,26.10
2018-12-17T20:05:04.308Z,28.30
2018-12-17T20:08:08.830Z,27.47
2018-12-17T20:11:13.188Z,27.27
2018-12-17T20:14:17.451Z,29.30
2018-12-17T20:17:21.977Z,26.00
2018-12-17T20:20:26.398Z,24.63
2018-12-17T20:23:30.660Z,25.07
2018-12-17T20:26:35.642Z,26.67
2018-12-17T20:29:40.120Z,25.90
2018-12-17T20:32:44.540Z,26.87
2018-12-17T20:35:48.840Z,26.70
2018-12-17T20:38:53.395Z,25.93
2018-12-17T20:41:57.908Z,25.50
2018-12-17T20:45:02.696Z,28.27
2018-12-17T20:48:07.220Z,27.97
2018-12-17T20:51:11.817Z,29.97
2018-12-17T20:54:16.312Z,29.53
2018-12-17T20:57:20.692Z,28.97
2018-12-17T21:00:24.989Z,27.60
2018-12-17T21:03:29.664Z,26.73
2018-12-17T21:06:34.252Z,24.87
2018-12-17T21:09:38.681Z,24.60
2018-12-17T21:12:43.131Z,26.30
2018-12-17T21:15:47.562Z,23.40
2018-12-17T21:18:51.765Z,23.90
2018-12-17T21:21:56.184Z,22.33
2018-12-17T21:25:00.411Z,22.97
2018-12-17T21:28:04.792Z,27.00
2018-12-17T21:31:09.171Z,23.23
2018-12-17T21:34:13.414Z,24.13
2018-12-17T21:37:17.752Z,22.13
2018-12-17T21:40:22.371Z,23.43
2018-12-17T21:43:26.874Z,25.90
2018-12-17T21:46:31.319Z,26.30
2018-12-17T21:49:35.733Z,24.30
2018-12-17T21:52:40.129Z,24.33
2018-12-17T21:55:45.133Z,25.00
2018-12-17T21:58:49.504Z,24.50
2018-12-17T22:01:53.912Z,23.20
2018-12-17T22:04:58.296Z,24.20
2018-12-17T22:08:02.627Z,25.67
2018-12-17T22:11:06.852Z,25.43
2018-12-17T22:14:11.370Z,25.93
2018-12-17T22:17:16.864Z,26.33
2018-12-17T22:20:21.056Z,25.73
2018-12-17T22:23:25.582Z,25.30
2018-12-17T22:26:30.054Z,24.63
2018-12-17T22:29:34.559Z,27.87
2018-12-17T22:32:39.081Z,26.53
2018-12-17T22:35:43.397Z,24.50
2018-12-17T22:38:47.611Z,26.43
2018-12-17T22:41:51.829Z,25.03
2018-12-17T22:44:56.101Z,24.70
2018-12-17T22:48:01.355Z,25.63
2018-12-17T22:51:05.550Z,22.57
2018-12-17T22:54:09.966Z,24.73
2018-12-17T22:57:14.419Z,27.43
2018-12-17T23:00:18.827Z,26.60
2018-12-17T23:03:26.265Z,25.13
2018-12-17T23:06:29.932Z,23.93
2018-12-17T23:09:44.897Z,27.30
2018-12-17T23:13:00.036Z,24.80
2018-12-17T23:16:15.244Z,25.10
2018-12-17T23:19:18.241Z,24.63
2018-12-17T23:22:22.391Z,25.20
2018-12-17T23:25:26.669Z,24.10
2018-12-17T23:28:31.012Z,25.10
2018-12-17T23:31:35.482Z,25.73
2018-12-17T23:34:40.858Z,25.40
2018-12-17T23:37:45.128Z,23.10
2018-12-17T23:40:49.706Z,23.40
2018-12-17T23:43:54.015Z,24.87
2018-12-17T23:46:58.419Z,25.40
2018-12-17T23:50:03.021Z,25.43
2018-12-17T23:53:07.271Z,24.30
2018-12-17T23:56:12.810Z,24.87
2018-12-17T23:59:17.214Z,25.87
